createdAt,value
2022-10-16T00:15:17.197Z,14.50
2022-10-16T00:17:44.853Z,14.50
2022-10-16T00:20:12.566Z,14.50
2022-10-16T00:22:40.995Z,14.50
2022-10-16T00:25:08.910Z,14.50
2022-10-16T00:27:39.538Z,14.40
2022-10-16T00:30:19.617Z,14.50
2022-10-16T00:32:50.300Z,14.50
2022-10-16T00:35:18.173Z,14.40
2022-10-16T00:37:45.922Z,14.50
2022-10-16T00:40:16.751Z,14.40
2022-10-16T00:42:44.580Z,14.40
2022-10-16T00:45:12.455Z,14.40
2022-10-16T00:52:59.694Z,14.40
2022-10-16T00:55:31.699Z,14.40
2022-10-16T01:02:43.249Z,14.40
2022-10-16T01:05:13.392Z,14.40
2022-10-16T01:18:46.387Z,14.40
2022-10-16T01:26:00.921Z,14.30
2022-10-16T01:28:59.224Z,14.30
2022-10-16T01:52:41.563Z,14.30
2022-10-16T01:55:13.688Z,14.30
2022-10-16T01:57:47.625Z,14.30
2022-10-16T02:00:18.200Z,14.30
2022-10-16T02:05:55.314Z,14.30
2022-10-16T02:08:32.085Z,14.20
2022-10-16T02:11:02.815Z,14.30
2022-10-16T02:13:58.173Z,14.20
2022-10-16T02:16:39.173Z,14.20
2022-10-16T02:59:21.637Z,14.00
2022-10-16T03:01:58.863Z,14.00
2022-10-16T03:04:29.962Z,14.00
2022-10-16T03:06:58.336Z,14.00
2022-10-16T03:09:35.207Z,13.90
2022-10-16T03:15:35.990Z,14.00
2022-10-16T03:18:04.780Z,13.90
2022-10-16T03:20:32.877Z,13.90
2022-10-16T03:23:18.221Z,13.90
2022-10-16T03:25:52.436Z,13.80
2022-10-16T04:05:49.905Z,13.50
2022-10-16T05:42:23.430Z,12.70
2022-10-16T05:44:55.741Z,12.80
2022-10-16T05:47:22.873Z,12.80
2022-10-16T05:49:56.223Z,12.80
2022-10-16T06:32:35.408Z,13.00
2022-10-16T06:35:02.928Z,13.10
2022-10-16T06:38:20.010Z,13.10
2022-10-16T06:40:47.718Z,13.20
2022-10-16T06:43:16.781Z,13.20
2022-10-16T06:45:51.194Z,13.20
2022-10-16T06:49:09.820Z,13.30
2022-10-16T06:57:47.455Z,13.30
2022-10-16T07:23:19.377Z,13.70
2022-10-16T07:25:54.759Z,13.70
2022-10-16T07:28:22.132Z,13.80
2022-10-16T07:30:51.674Z,13.90
2022-10-16T07:33:19.318Z,14.00
2022-10-16T07:35:52.898Z,14.10
2022-10-16T07:38:21.609Z,14.20
2022-10-16T07:41:07.363Z,14.30
2022-10-16T07:43:35.455Z,14.40
2022-10-16T07:46:29.197Z,14.50
2022-10-16T07:48:57.106Z,14.60
2022-10-16T07:51:26.979Z,14.70
2022-10-16T07:53:54.639Z,14.80
2022-10-16T07:56:24.241Z,14.90
2022-10-16T07:58:54.073Z,15.00
2022-10-16T08:01:21.881Z,15.10
2022-10-16T08:03:52.004Z,15.20
2022-10-16T08:06:27.651Z,15.30
2022-10-16T08:08:57.517Z,15.50
2022-10-16T08:11:25.283Z,15.60
2022-10-16T08:13:52.953Z,15.80
2022-10-16T08:16:21.061Z,16.00
2022-10-16T08:18:48.542Z,16.10
2022-10-16T08:21:21.177Z,16.30
2022-10-16T08:23:54.723Z,16.50
2022-10-16T08:26:24.538Z,16.70
2022-10-16T08:28:52.959Z,16.90
2022-10-16T08:31:21.423Z,17.10
2022-10-16T08:33:48.835Z,17.30
2022-10-16T08:41:21.910Z,17.70
2022-10-16T08:44:52.280Z,18.30
2022-10-16T08:47:57.560Z,18.60
2022-10-16T08:50:32.730Z,19.00
2022-10-16T08:53:00.482Z,19.20
2022-10-16T09:00:47.511Z,19.50
2022-10-16T09:03:46.264Z,19.90
2022-10-16T09:06:32.471Z,19.90
2022-10-16T09:09:16.551Z,20.10
2022-10-16T09:12:21.009Z,20.30
2022-10-16T09:23:49.550Z,20.60
2022-10-16T09:26:20.581Z,20.70
2022-10-16T09:28:50.173Z,20.80
2022-10-16T09:31:21.832Z,20.80
2022-10-16T09:33:58.401Z,20.80
2022-10-16T09:36:29.078Z,20.90
2022-10-16T09:39:09.918Z,21.00
2022-10-16T09:41:44.854Z,21.20
2022-10-16T09:44:30.618Z,21.30
2022-10-16T09:47:21.699Z,21.60
2022-10-16T09:49:58.730Z,21.90
2022-10-16T09:52:26.465Z,22.10
2022-10-16T09:55:00.774Z,22.30
2022-10-16T09:57:31.038Z,22.40
2022-10-16T09:59:59.623Z,22.70
2022-10-16T10:02:39.315Z,22.70
2022-10-16T10:05:22.070Z,22.80
2022-10-16T10:08:00.961Z,22.90
2022-10-16T10:10:34.604Z,23.10
2022-10-16T10:13:03.298Z,23.20
2022-10-16T10:15:42.489Z,23.50
2022-10-16T10:18:25.121Z,23.60
2022-10-16T10:23:36.058Z,23.90
2022-10-16T10:26:23.108Z,24.00
2022-10-16T10:29:19.515Z,24.10
2022-10-16T10:32:02.437Z,24.20
2022-10-16T10:34:48.464Z,24.20
2022-10-16T10:37:22.990Z,24.30
2022-10-16T10:40:16.185Z,24.40
2022-10-16T10:43:11.302Z,24.50
2022-10-16T10:45:49.178Z,24.60
2022-10-16T10:48:45.032Z,24.60
2022-10-16T10:51:45.065Z,24.70
2022-10-16T10:54:28.814Z,24.70
2022-10-16T10:57:05.337Z,24.70
2022-10-16T11:00:03.882Z,24.70
2022-10-16T11:02:59.038Z,24.70
2022-10-16T11:05:41.738Z,24.70
2022-10-16T11:08:19.590Z,24.70
2022-10-16T11:11:07.518Z,24.60
2022-10-16T11:13:44.821Z,24.60
2022-10-16T11:16:27.337Z,24.60
2022-10-16T11:19:11.446Z,24.60
2022-10-16T11:21:52.267Z,24.50
2022-10-16T11:24:51.138Z,24.50
2022-10-16T11:27:28.757Z,24.50
2022-10-16T11:30:04.398Z,24.50
2022-10-16T11:32:47.592Z,24.40
2022-10-16T11:35:39.469Z,24.40
2022-10-16T11:38:27.006Z,24.40
2022-10-16T11:41:03.582Z,24.40
2022-10-16T11:43:40.029Z,24.40
2022-10-16T11:46:20.143Z,24.40
2022-10-16T11:49:16.219Z,24.40
2022-10-16T11:52:00.461Z,24.30
2022-10-16T11:54:46.351Z,24.20
2022-10-16T11:57:31.862Z,24.20
2022-10-16T12:00:29.813Z,24.20
2022-10-16T12:03:30.268Z,24.10
2022-10-16T12:06:12.346Z,24.10
2022-10-16T12:08:41.348Z,24.00
2022-10-16T12:11:28.373Z,24.00
2022-10-16T12:14:46.990Z,23.90
2022-10-16T12:17:45.674Z,23.90
2022-10-16T12:20:13.562Z,23.90
2022-10-16T12:22:55.067Z,23.80
2022-10-16T12:25:47.194Z,23.90
2022-10-16T12:28:21.219Z,23.80
2022-10-16T12:31:07.657Z,23.80
2022-10-16T12:33:57.122Z,23.70
2022-10-16T12:36:43.544Z,23.70
2022-10-16T12:39:24.412Z,23.70
2022-10-16T12:42:20.801Z,23.70
2022-10-16T12:44:48.109Z,23.70
2022-10-16T12:47:34.595Z,23.70
2022-10-16T12:50:07.255Z,23.70
2022-10-16T12:52:40.666Z,23.70
2022-10-16T12:55:19.598Z,23.60
2022-10-16T12:58:16.751Z,23.70
2022-10-16T13:00:59.145Z,23.70
2022-10-16T13:04:26.338Z,23.60
2022-10-16T13:07:21.539Z,23.60
2022-10-16T13:10:16.247Z,23.60
2022-10-16T13:13:16.023Z,23.60
2022-10-16T13:16:08.165Z,23.60
2022-10-16T13:19:12.932Z,23.60
2022-10-16T13:22:04.139Z,23.60
2022-10-16T13:25:17.350Z,23.50
2022-10-16T13:28:06.452Z,23.50
2022-10-16T13:30:53.084Z,23.50
2022-10-16T13:33:43.149Z,23.40
2022-10-16T13:36:26.523Z,23.40
2022-10-16T13:39:22.454Z,23.40
2022-10-16T13:42:15.671Z,23.30
2022-10-16T13:44:48.782Z,23.30
2022-10-16T13:47:29.902Z,23.30
2022-10-16T13:50:19.756Z,23.30
2022-10-16T13:52:47.005Z,23.30
2022-10-16T13:55:17.670Z,23.30
2022-10-16T13:57:45.424Z,23.30
2022-10-16T14:00:21.125Z,23.20
2022-10-16T14:03:03.418Z,23.20
2022-10-16T14:05:31.148Z,23.20
2022-10-16T14:08:00.319Z,23.20
2022-10-16T14:10:33.372Z,23.10
2022-10-16T14:13:05.743Z,23.10
2022-10-16T14:15:35.326Z,23.00
2022-10-16T14:18:04.660Z,22.90
2022-10-16T14:20:35.340Z,22.90
2022-10-16T14:23:36.941Z,22.90
2022-10-16T14:26:15.758Z,22.80
2022-10-16T14:28:45.377Z,22.80
2022-10-16T14:31:30.495Z,22.70
2022-10-16T14:33:59.038Z,22.70
2022-10-16T14:36:29.460Z,22.70
2022-10-16T14:39:19.257Z,22.60
2022-10-16T14:41:50.397Z,22.60
2022-10-16T14:44:30.895Z,22.60
2022-10-16T14:47:00.582Z,22.50
2022-10-16T14:49:29.172Z,22.50
2022-10-16T14:51:59.044Z,22.50
2022-10-16T14:54:26.932Z,22.50
2022-10-16T14:56:59.624Z,22.40
2022-10-16T14:59:37.645Z,22.30
2022-10-16T15:02:25.333Z,22.30
2022-10-16T15:04:52.772Z,22.20
2022-10-16T15:07:20.218Z,22.10
2022-10-16T15:09:49.506Z,22.10
2022-10-16T15:12:19.737Z,22.00
2022-10-16T15:14:47.604Z,21.90
2022-10-16T15:17:17.414Z,21.80
2022-10-16T15:19:47.570Z,21.80
2022-10-16T15:22:14.887Z,21.80
2022-10-16T15:24:41.959Z,21.70
2022-10-16T15:27:09.579Z,21.60
2022-10-16T15:29:36.578Z,21.60
2022-10-16T15:32:04.215Z,21.50
2022-10-16T15:34:31.592Z,21.50
2022-10-16T15:37:00.473Z,21.40
2022-10-16T15:39:40.581Z,21.40
2022-10-16T15:42:09.238Z,21.30
2022-10-16T15:44:36.249Z,21.20
2022-10-16T15:47:23.185Z,21.20
2022-10-16T15:49:58.174Z,21.10
2022-10-16T15:52:26.515Z,21.10
2022-10-16T15:55:00.106Z,21.00
2022-10-16T15:57:30.487Z,20.90
2022-10-16T15:59:57.624Z,20.90
2022-10-16T16:02:26.153Z,20.80
2022-10-16T16:10:30.616Z,20.70
2022-10-16T16:19:18.983Z,20.50
2022-10-16T16:27:06.381Z,20.30
2022-10-16T16:29:34.689Z,20.20
2022-10-16T16:32:03.621Z,20.10
2022-10-16T16:34:31.137Z,20.00
2022-10-16T16:36:59.131Z,20.00
2022-10-16T16:48:26.235Z,19.80
2022-10-16T16:50:54.293Z,19.60
2022-10-16T16:53:22.966Z,19.60
2022-10-16T16:55:51.077Z,19.50
2022-10-16T16:58:18.418Z,19.50
2022-10-16T17:00:56.661Z,19.40
2022-10-16T17:03:25.384Z,19.40
2022-10-16T17:05:59.655Z,19.30
2022-10-16T17:08:27.466Z,19.30
2022-10-16T17:10:56.087Z,19.20
2022-10-16T17:13:26.160Z,19.20
2022-10-16T17:15:54.792Z,19.10
2022-10-16T17:18:25.076Z,19.10
2022-10-16T17:20:52.453Z,19.00
2022-10-16T17:23:21.015Z,18.90
2022-10-16T17:25:48.166Z,18.80
2022-10-16T17:28:15.534Z,18.80
2022-10-16T17:30:44.034Z,18.70
2022-10-16T17:33:15.629Z,18.70
2022-10-16T17:35:47.505Z,18.70
2022-10-16T17:38:16.713Z,18.60
2022-10-16T17:40:44.978Z,18.60
2022-10-16T17:43:12.210Z,18.60
2022-10-16T17:45:39.795Z,18.50
2022-10-16T17:48:07.060Z,18.50
2022-10-16T17:50:34.507Z,18.40
2022-10-16T17:53:01.887Z,18.40
2022-10-16T17:55:29.105Z,18.30
2022-10-16T17:57:57.857Z,18.30
2022-10-16T18:00:25.412Z,18.30
2022-10-16T18:02:53.681Z,18.20
2022-10-16T18:05:21.075Z,18.10
2022-10-16T18:07:48.580Z,18.10
2022-10-16T18:10:18.833Z,18.00
2022-10-16T18:12:48.307Z,18.00
2022-10-16T18:15:16.161Z,17.90
2022-10-16T18:17:44.068Z,17.90
2022-10-16T18:20:12.087Z,17.80
2022-10-16T18:22:40.274Z,17.80
2022-10-16T18:25:08.269Z,17.70
2022-10-16T18:27:36.948Z,17.70
2022-10-16T18:30:06.931Z,17.60
2022-10-16T18:32:35.137Z,17.60
2022-10-16T18:35:06.909Z,17.50
2022-10-16T18:37:38.233Z,17.50
2022-10-16T18:40:31.550Z,17.50
2022-10-16T18:43:06.493Z,17.40
2022-10-16T18:45:34.505Z,17.40
2022-10-16T18:48:07.232Z,17.30
2022-10-16T18:50:36.865Z,17.30
2022-10-16T18:53:05.401Z,17.30
2022-10-16T18:55:36.415Z,17.20
2022-10-16T18:58:07.193Z,17.10
2022-10-16T19:00:35.709Z,17.00
2022-10-16T19:03:15.783Z,17.00
2022-10-16T19:05:46.445Z,17.00
2022-10-16T19:08:18.522Z,16.90
2022-10-16T19:10:47.023Z,16.90
2022-10-16T19:13:16.107Z,16.90
2022-10-16T19:15:58.336Z,16.80
2022-10-16T19:18:40.456Z,16.80
